sensor_id;sensor_type;location;lat;lon;timestamp;temperature;humidity
5023;DHT22;2530;47.990;7.866;2022-08-19T00:01:20;18.10;99.90
5023;DHT22;2530;47.990;7.866;2022-08-19T00:03:46;18.10;99.90
5023;DHT22;2530;47.990;7.866;2022-08-19T00:06:12;18.10;99.90
5023;DHT22;2530;47.990;7.866;2022-08-19T00:08:37;18.10;99.90
5023;DHT22;2530;47.990;7.866;2022-08-19T00:11:03;18.10;99.90
5023;DHT22;2530;47.990;7.866;2022-08-19T00:13:29;18.20;99.90
5023;DHT22;2530;47.990;7.866;2022-08-19T00:15:55;18.20;99.90
5023;DHT22;2530;47.990;7.866;2022-08-19T00:18:21;18.20;99.90
5023;DHT22;2530;47.990;7.866;2022-08-19T00:20:47;18.10;99.90
5023;DHT22;2530;47.990;7.866;2022-08-19T00:23:12;18.10;99.90
5023;DHT22;2530;47.990;7.866;2022-08-19T00:25:38;18.00;99.90
5023;DHT22;2530;47.990;7.866;2022-08-19T00:28:04;18.00;99.90
5023;DHT22;2530;47.990;7.866;2022-08-19T00:30:30;18.20;99.90
5023;DHT22;2530;47.990;7.866;2022-08-19T00:32:56;18.10;99.90
5023;DHT22;2530;47.990;7.866;2022-08-19T00:35:22;18.20;99.90
5023;DHT22;2530;47.990;7.866;2022-08-19T00:37:49;18.20;99.90
5023;DHT22;2530;47.990;7.866;2022-08-19T00:40:16;18.00;99.90
5023;DHT22;2530;47.990;7.866;2022-08-19T00:42:42;18.00;99.90
5023;DHT22;2530;47.990;7.866;2022-08-19T00:45:18;18.00;99.90
5023;DHT22;2530;47.990;7.866;2022-08-19T00:47:44;18.00;99.90
5023;DHT22;2530;47.990;7.866;2022-08-19T00:50:13;18.00;99.90
5023;DHT22;2530;47.990;7.866;2022-08-19T00:52:43;18.10;99.90
5023;DHT22;2530;47.990;7.866;2022-08-19T00:55:13;18.00;99.90
5023;DHT22;2530;47.990;7.866;2022-08-19T00:57:45;17.90;99.90
5023;DHT22;2530;47.990;7.866;2022-08-19T01:00:16;18.00;99.90
5023;DHT22;2530;47.990;7.866;2022-08-19T01:02:42;18.00;99.90
5023;DHT22;2530;47.990;7.866;2022-08-19T01:05:17;18.00;99.90
5023;DHT22;2530;47.990;7.866;2022-08-19T01:07:45;18.00;99.90
5023;DHT22;2530;47.990;7.866;2022-08-19T01:10:16;17.90;99.90
5023;DHT22;2530;47.990;7.866;2022-08-19T01:12:44;17.90;99.90
5023;DHT22;2530;47.990;7.866;2022-08-19T01:15:14;17.90;99.90
5023;DHT22;2530;47.990;7.866;2022-08-19T01:17:41;17.90;99.90
5023;DHT22;2530;47.990;7.866;2022-08-19T01:20:11;18.00;99.90
5023;DHT22;2530;47.990;7.866;2022-08-19T01:22:45;17.90;99.90
5023;DHT22;2530;47.990;7.866;2022-08-19T01:25:17;17.90;99.90
5023;DHT22;2530;47.990;7.866;2022-08-19T01:27:45;17.90;99.90
5023;DHT22;2530;47.990;7.866;2022-08-19T01:30:17;18.00;99.90
5023;DHT22;2530;47.990;7.866;2022-08-19T01:32:43;17.80;99.90
5023;DHT22;2530;47.990;7.866;2022-08-19T01:35:10;17.80;99.90
5023;DHT22;2530;47.990;7.866;2022-08-19T01:37:54;17.90;99.90
5023;DHT22;2530;47.990;7.866;2022-08-19T01:40:22;17.90;99.90
5023;DHT22;2530;47.990;7.866;2022-08-19T01:42:49;17.90;99.90
5023;DHT22;2530;47.990;7.866;2022-08-19T01:45:16;17.90;99.90
5023;DHT22;2530;47.990;7.866;2022-08-19T01:47:41;17.90;99.90
5023;DHT22;2530;47.990;7.866;2022-08-19T01:50:08;17.80;99.90
5023;DHT22;2530;47.990;7.866;2022-08-19T01:52:36;17.80;99.90
5023;DHT22;2530;47.990;7.866;2022-08-19T01:55:03;17.90;99.90
5023;DHT22;2530;47.990;7.866;2022-08-19T01:57:29;17.80;99.90
5023;DHT22;2530;47.990;7.866;2022-08-19T01:59:54;17.80;99.90
5023;DHT22;2530;47.990;7.866;2022-08-19T02:02:20;17.70;99.90
5023;DHT22;2530;47.990;7.866;2022-08-19T02:04:45;17.70;99.90
5023;DHT22;2530;47.990;7.866;2022-08-19T02:07:11;17.80;99.90
5023;DHT22;2530;47.990;7.866;2022-08-19T02:09:37;17.90;99.90
5023;DHT22;2530;47.990;7.866;2022-08-19T02:12:03;18.00;99.90
5023;DHT22;2530;47.990;7.866;2022-08-19T02:14:29;17.90;99.90
5023;DHT22;2530;47.990;7.866;2022-08-19T02:16:55;17.90;99.90
5023;DHT22;2530;47.990;7.866;2022-08-19T02:19:20;17.90;99.90
5023;DHT22;2530;47.990;7.866;2022-08-19T02:21:46;17.90;99.90
5023;DHT22;2530;47.990;7.866;2022-08-19T02:24:11;17.90;99.90
5023;DHT22;2530;47.990;7.866;2022-08-19T02:26:37;17.90;99.90
5023;DHT22;2530;47.990;7.866;2022-08-19T02:29:03;18.00;99.90
5023;DHT22;2530;47.990;7.866;2022-08-19T02:31:28;17.90;99.90
5023;DHT22;2530;47.990;7.866;2022-08-19T02:33:55;17.80;99.90
5023;DHT22;2530;47.990;7.866;2022-08-19T02:36:22;17.80;99.90
5023;DHT22;2530;47.990;7.866;2022-08-19T02:38:48;17.90;99.90
5023;DHT22;2530;47.990;7.866;2022-08-19T02:41:17;17.90;99.90
5023;DHT22;2530;47.990;7.866;2022-08-19T02:43:43;17.90;99.90
5023;DHT22;2530;47.990;7.866;2022-08-19T02:46:34;17.90;99.90
5023;DHT22;2530;47.990;7.866;2022-08-19T02:49:04;17.90;99.90
5023;DHT22;2530;47.990;7.866;2022-08-19T02:51:34;17.90;99.90
5023;DHT22;2530;47.990;7.866;2022-08-19T02:54:00;17.90;99.90
5023;DHT22;2530;47.990;7.866;2022-08-19T02:56:27;17.90;99.90
5023;DHT22;2530;47.990;7.866;2022-08-19T02:58:54;17.90;99.90
5023;DHT22;2530;47.990;7.866;2022-08-19T03:01:27;17.80;99.90
5023;DHT22;2530;47.990;7.866;2022-08-19T03:03:54;17.80;99.90
5023;DHT22;2530;47.990;7.866;2022-08-19T03:06:21;17.70;99.90
5023;DHT22;2530;47.990;7.866;2022-08-19T03:08:47;17.90;99.90
5023;DHT22;2530;47.990;7.866;2022-08-19T03:11:21;17.90;99.90
5023;DHT22;2530;47.990;7.866;2022-08-19T03:13:47;17.80;99.90
5023;DHT22;2530;47.990;7.866;2022-08-19T03:16:17;17.90;99.90
5023;DHT22;2530;47.990;7.866;2022-08-19T03:18:43;17.80;99.90
5023;DHT22;2530;47.990;7.866;2022-08-19T03:21:09;17.80;99.90
5023;DHT22;2530;47.990;7.866;2022-08-19T03:23:35;17.80;99.90
5023;DHT22;2530;47.990;7.866;2022-08-19T03:26:05;17.70;99.90
5023;DHT22;2530;47.990;7.866;2022-08-19T03:28:31;17.80;99.90
5023;DHT22;2530;47.990;7.866;2022-08-19T03:31:04;17.80;99.90
5023;DHT22;2530;47.990;7.866;2022-08-19T03:33:31;17.70;99.90
5023;DHT22;2530;47.990;7.866;2022-08-19T03:38:26;17.80;99.90
5023;DHT22;2530;47.990;7.866;2022-08-19T03:40:51;17.70;99.90
5023;DHT22;2530;47.990;7.866;2022-08-19T03:43:17;17.80;99.90
5023;DHT22;2530;47.990;7.866;2022-08-19T03:45:43;17.70;99.90
5023;DHT22;2530;47.990;7.866;2022-08-19T03:48:08;17.80;99.90
5023;DHT22;2530;47.990;7.866;2022-08-19T03:50:38;17.80;99.90
5023;DHT22;2530;47.990;7.866;2022-08-19T03:53:04;17.80;99.90
5023;DHT22;2530;47.990;7.866;2022-08-19T03:55:30;17.80;99.90
5023;DHT22;2530;47.990;7.866;2022-08-19T03:57:55;17.80;99.90
5023;DHT22;2530;47.990;7.866;2022-08-19T04:00:21;17.80;99.90
5023;DHT22;2530;47.990;7.866;2022-08-19T04:02:47;17.70;99.90
5023;DHT22;2530;47.990;7.866;2022-08-19T04:05:12;17.80;99.90
5023;DHT22;2530;47.990;7.866;2022-08-19T04:07:39;17.80;99.90
5023;DHT22;2530;47.990;7.866;2022-08-19T04:10:05;17.90;99.90
5023;DHT22;2530;47.990;7.866;2022-08-19T04:12:31;17.80;99.90
5023;DHT22;2530;47.990;7.866;2022-08-19T04:14:57;17.80;99.90
5023;DHT22;2530;47.990;7.866;2022-08-19T04:17:23;17.90;99.90
5023;DHT22;2530;47.990;7.866;2022-08-19T04:19:49;17.90;99.90
5023;DHT22;2530;47.990;7.866;2022-08-19T04:22:15;17.90;99.90
5023;DHT22;2530;47.990;7.866;2022-08-19T04:24:40;17.80;99.90
5023;DHT22;2530;47.990;7.866;2022-08-19T04:27:06;17.80;99.90
5023;DHT22;2530;47.990;7.866;2022-08-19T04:29:32;17.80;99.90
5023;DHT22;2530;47.990;7.866;2022-08-19T04:31:59;17.80;99.90
5023;DHT22;2530;47.990;7.866;2022-08-19T04:34:27;17.90;99.90
5023;DHT22;2530;47.990;7.866;2022-08-19T04:36:55;17.90;99.90
5023;DHT22;2530;47.990;7.866;2022-08-19T04:39:23;17.90;99.90
5023;DHT22;2530;47.990;7.866;2022-08-19T04:42:09;17.90;99.90
5023;DHT22;2530;47.990;7.866;2022-08-19T04:44:54;17.80;99.90
5023;DHT22;2530;47.990;7.866;2022-08-19T04:47:19;17.90;99.90
5023;DHT22;2530;47.990;7.866;2022-08-19T04:49:45;17.90;99.90
5023;DHT22;2530;47.990;7.866;2022-08-19T04:52:11;17.90;99.90
5023;DHT22;2530;47.990;7.866;2022-08-19T04:54:37;17.90;99.90
5023;DHT22;2530;47.990;7.866;2022-08-19T04:57:02;18.00;99.90
5023;DHT22;2530;47.990;7.866;2022-08-19T04:59:31;18.00;99.90
5023;DHT22;2530;47.990;7.866;2022-08-19T05:01:57;18.00;99.90
5023;DHT22;2530;47.990;7.866;2022-08-19T05:04:23;17.90;99.90
5023;DHT22;2530;47.990;7.866;2022-08-19T05:06:49;17.90;99.90
5023;DHT22;2530;47.990;7.866;2022-08-19T05:09:15;17.90;99.90
5023;DHT22;2530;47.990;7.866;2022-08-19T05:11:41;18.00;99.90
5023;DHT22;2530;47.990;7.866;2022-08-19T05:14:08;18.00;99.90
5023;DHT22;2530;47.990;7.866;2022-08-19T05:16:34;18.00;99.90
5023;DHT22;2530;47.990;7.866;2022-08-19T05:19:00;18.00;99.90
5023;DHT22;2530;47.990;7.866;2022-08-19T05:21:44;18.10;99.90
5023;DHT22;2530;47.990;7.866;2022-08-19T05:24:29;18.10;99.90
5023;DHT22;2530;47.990;7.866;2022-08-19T05:26:55;18.10;99.90
5023;DHT22;2530;47.990;7.866;2022-08-19T05:29:26;18.10;99.90
5023;DHT22;2530;47.990;7.866;2022-08-19T05:31:53;18.10;99.90
5023;DHT22;2530;47.990;7.866;2022-08-19T05:34:19;18.10;99.90
5023;DHT22;2530;47.990;7.866;2022-08-19T05:36:49;18.20;99.90
5023;DHT22;2530;47.990;7.866;2022-08-19T05:39:19;18.20;99.90
5023;DHT22;2530;47.990;7.866;2022-08-19T05:41:47;18.10;99.90
5023;DHT22;2530;47.990;7.866;2022-08-19T05:44:14;18.20;99.90
5023;DHT22;2530;47.990;7.866;2022-08-19T05:46:40;18.20;99.90
5023;DHT22;2530;47.990;7.866;2022-08-19T05:49:06;18.20;99.90
5023;DHT22;2530;47.990;7.866;2022-08-19T05:51:34;18.20;99.90
5023;DHT22;2530;47.990;7.866;2022-08-19T05:54:01;18.30;99.90
5023;DHT22;2530;47.990;7.866;2022-08-19T05:56:27;18.20;99.90
5023;DHT22;2530;47.990;7.866;2022-08-19T05:58:55;18.30;99.90
5023;DHT22;2530;47.990;7.866;2022-08-19T06:01:21;18.30;99.90
5023;DHT22;2530;47.990;7.866;2022-08-19T06:03:47;18.40;99.90
5023;DHT22;2530;47.990;7.866;2022-08-19T06:06:15;18.50;99.90
5023;DHT22;2530;47.990;7.866;2022-08-19T06:08:42;18.50;99.90
5023;DHT22;2530;47.990;7.866;2022-08-19T06:11:38;18.60;99.90
5023;DHT22;2530;47.990;7.866;2022-08-19T06:14:18;18.60;99.90
5023;DHT22;2530;47.990;7.866;2022-08-19T06:16:45;18.60;99.90
5023;DHT22;2530;47.990;7.866;2022-08-19T06:19:16;18.70;99.90
5023;DHT22;2530;47.990;7.866;2022-08-19T06:21:43;18.70;99.90
5023;DHT22;2530;47.990;7.866;2022-08-19T06:24:11;18.80;99.90
5023;DHT22;2530;47.990;7.866;2022-08-19T06:26:39;18.70;99.90
5023;DHT22;2530;47.990;7.866;2022-08-19T06:29:06;18.70;99.90
5023;DHT22;2530;47.990;7.866;2022-08-19T06:31:34;18.80;99.90
5023;DHT22;2530;47.990;7.866;2022-08-19T06:34:01;18.80;99.90
5023;DHT22;2530;47.990;7.866;2022-08-19T06:36:34;18.80;99.90
5023;DHT22;2530;47.990;7.866;2022-08-19T06:39:06;18.90;99.90
5023;DHT22;2530;47.990;7.866;2022-08-19T06:41:38;18.90;99.90
5023;DHT22;2530;47.990;7.866;2022-08-19T06:44:05;18.90;99.90
5023;DHT22;2530;47.990;7.866;2022-08-19T06:46:30;18.90;99.90
5023;DHT22;2530;47.990;7.866;2022-08-19T06:48:57;19.00;99.90
5023;DHT22;2530;47.990;7.866;2022-08-19T06:51:23;19.00;99.90
5023;DHT22;2530;47.990;7.866;2022-08-19T06:53:52;19.10;99.90
5023;DHT22;2530;47.990;7.866;2022-08-19T06:56:21;19.10;99.90
5023;DHT22;2530;47.990;7.866;2022-08-19T06:58:47;19.30;99.90
5023;DHT22;2530;47.990;7.866;2022-08-19T07:01:16;19.40;99.90
5023;DHT22;2530;47.990;7.866;2022-08-19T07:03:41;19.40;99.90
5023;DHT22;2530;47.990;7.866;2022-08-19T07:06:10;19.40;99.90
5023;DHT22;2530;47.990;7.866;2022-08-19T07:08:37;19.40;99.90
5023;DHT22;2530;47.990;7.866;2022-08-19T07:11:11;19.40;99.90
5023;DHT22;2530;47.990;7.866;2022-08-19T07:13:39;19.50;99.90
5023;DHT22;2530;47.990;7.866;2022-08-19T07:16:06;19.50;99.90
5023;DHT22;2530;47.990;7.866;2022-08-19T07:18:33;19.40;99.90
5023;DHT22;2530;47.990;7.866;2022-08-19T07:21:07;19.50;99.90
5023;DHT22;2530;47.990;7.866;2022-08-19T07:23:33;19.60;99.90
5023;DHT22;2530;47.990;7.866;2022-08-19T07:26:07;19.70;99.90
5023;DHT22;2530;47.990;7.866;2022-08-19T07:28:33;19.70;99.90
5023;DHT22;2530;47.990;7.866;2022-08-19T07:30:59;19.70;99.90
5023;DHT22;2530;47.990;7.866;2022-08-19T07:33:27;19.80;99.90
5023;DHT22;2530;47.990;7.866;2022-08-19T07:35:52;19.90;99.90
5023;DHT22;2530;47.990;7.866;2022-08-19T07:38:18;19.80;99.90
5023;DHT22;2530;47.990;7.866;2022-08-19T07:40:44;19.90;99.90
5023;DHT22;2530;47.990;7.866;2022-08-19T07:43:11;19.90;99.90
5023;DHT22;2530;47.990;7.866;2022-08-19T07:45:37;19.80;99.90
5023;DHT22;2530;47.990;7.866;2022-08-19T07:48:02;19.90;99.90
5023;DHT22;2530;47.990;7.866;2022-08-19T07:50:29;20.00;99.90
5023;DHT22;2530;47.990;7.866;2022-08-19T07:52:55;20.00;99.90
5023;DHT22;2530;47.990;7.866;2022-08-19T07:55:24;19.90;99.90
5023;DHT22;2530;47.990;7.866;2022-08-19T07:57:50;19.80;99.90
5023;DHT22;2530;47.990;7.866;2022-08-19T08:00:18;19.90;99.90
5023;DHT22;2530;47.990;7.866;2022-08-19T08:02:43;19.90;99.90
5023;DHT22;2530;47.990;7.866;2022-08-19T08:05:09;20.00;99.90
5023;DHT22;2530;47.990;7.866;2022-08-19T08:07:54;20.10;99.90
5023;DHT22;2530;47.990;7.866;2022-08-19T08:10:38;20.20;99.90
5023;DHT22;2530;47.990;7.866;2022-08-19T08:13:03;20.20;99.90
5023;DHT22;2530;47.990;7.866;2022-08-19T08:15:31;20.10;99.90
5023;DHT22;2530;47.990;7.866;2022-08-19T08:17:56;20.00;99.90
5023;DHT22;2530;47.990;7.866;2022-08-19T08:20:23;20.00;99.90
5023;DHT22;2530;47.990;7.866;2022-08-19T08:22:49;20.00;99.90
5023;DHT22;2530;47.990;7.866;2022-08-19T08:25:34;20.00;99.90
5023;DHT22;2530;47.990;7.866;2022-08-19T08:28:01;19.90;99.90
5023;DHT22;2530;47.990;7.866;2022-08-19T08:30:28;19.90;99.90
5023;DHT22;2530;47.990;7.866;2022-08-19T08:32:54;19.90;99.90
5023;DHT22;2530;47.990;7.866;2022-08-19T08:35:22;19.90;99.90
5023;DHT22;2530;47.990;7.866;2022-08-19T08:37:49;19.80;99.90
5023;DHT22;2530;47.990;7.866;2022-08-19T08:48:39;20.00;99.90
5023;DHT22;2530;47.990;7.866;2022-08-19T08:51:21;20.10;99.90
5023;DHT22;2530;47.990;7.866;2022-08-19T08:53:49;20.00;99.90
5023;DHT22;2530;47.990;7.866;2022-08-19T08:56:16;20.00;99.90
5023;DHT22;2530;47.990;7.866;2022-08-19T08:58:45;20.00;99.90
5023;DHT22;2530;47.990;7.866;2022-08-19T09:01:12;19.90;99.90
5023;DHT22;2530;47.990;7.866;2022-08-19T09:03:40;20.00;99.90
5023;DHT22;2530;47.990;7.866;2022-08-19T09:06:32;20.10;99.90
5023;DHT22;2530;47.990;7.866;2022-08-19T09:09:09;20.20;99.90
5023;DHT22;2530;47.990;7.866;2022-08-19T09:11:42;20.20;99.90
5023;DHT22;2530;47.990;7.866;2022-08-19T09:16:39;20.20;99.90
5023;DHT22;2530;47.990;7.866;2022-08-19T09:19:07;20.20;99.90
5023;DHT22;2530;47.990;7.866;2022-08-19T09:21:33;20.20;99.90
5023;DHT22;2530;47.990;7.866;2022-08-19T09:24:00;20.20;99.90
5023;DHT22;2530;47.990;7.866;2022-08-19T09:26:26;20.20;99.90
5023;DHT22;2530;47.990;7.866;2022-08-19T09:28:53;20.10;99.90
5023;DHT22;2530;47.990;7.866;2022-08-19T09:31:22;20.10;99.90
5023;DHT22;2530;47.990;7.866;2022-08-19T09:33:48;20.20;99.90
5023;DHT22;2530;47.990;7.866;2022-08-19T09:36:17;20.40;99.90
5023;DHT22;2530;47.990;7.866;2022-08-19T09:38:44;20.40;99.90
5023;DHT22;2530;47.990;7.866;2022-08-19T09:41:14;20.40;99.90
5023;DHT22;2530;47.990;7.866;2022-08-19T09:43:41;20.40;99.90
5023;DHT22;2530;47.990;7.866;2022-08-19T09:46:08;20.40;99.90
5023;DHT22;2530;47.990;7.866;2022-08-19T09:48:39;20.50;99.90
5023;DHT22;2530;47.990;7.866;2022-08-19T09:51:07;20.60;99.90
5023;DHT22;2530;47.990;7.866;2022-08-19T09:53:37;20.70;99.90
5023;DHT22;2530;47.990;7.866;2022-08-19T09:56:05;20.90;99.90
5023;DHT22;2530;47.990;7.866;2022-08-19T09:58:32;20.90;99.90
5023;DHT22;2530;47.990;7.866;2022-08-19T10:00:58;20.90;99.90
5023;DHT22;2530;47.990;7.866;2022-08-19T10:03:25;21.10;99.90
5023;DHT22;2530;47.990;7.866;2022-08-19T10:05:52;21.20;99.90
5023;DHT22;2530;47.990;7.866;2022-08-19T10:08:27;21.40;99.90
5023;DHT22;2530;47.990;7.866;2022-08-19T10:10:54;21.60;99.90
5023;DHT22;2530;47.990;7.866;2022-08-19T10:13:22;21.70;99.90
5023;DHT22;2530;47.990;7.866;2022-08-19T10:15:49;21.80;99.90
5023;DHT22;2530;47.990;7.866;2022-08-19T10:18:19;21.80;99.90
5023;DHT22;2530;47.990;7.866;2022-08-19T10:20:47;21.60;99.90
5023;DHT22;2530;47.990;7.866;2022-08-19T10:23:13;21.60;99.90
5023;DHT22;2530;47.990;7.866;2022-08-19T10:25:40;21.20;99.90
5023;DHT22;2530;47.990;7.866;2022-08-19T10:28:06;21.30;99.90
5023;DHT22;2530;47.990;7.866;2022-08-19T10:30:32;21.40;99.90
5023;DHT22;2530;47.990;7.866;2022-08-19T10:32:58;21.40;99.90
5023;DHT22;2530;47.990;7.866;2022-08-19T10:35:24;21.10;99.90
5023;DHT22;2530;47.990;7.866;2022-08-19T10:37:55;21.10;99.90
5023;DHT22;2530;47.990;7.866;2022-08-19T10:40:25;21.30;99.90
5023;DHT22;2530;47.990;7.866;2022-08-19T10:42:52;21.30;99.90
5023;DHT22;2530;47.990;7.866;2022-08-19T10:45:17;21.10;99.90
5023;DHT22;2530;47.990;7.866;2022-08-19T10:47:43;21.00;99.90
5023;DHT22;2530;47.990;7.866;2022-08-19T10:50:08;20.90;99.90
5023;DHT22;2530;47.990;7.866;2022-08-19T10:52:52;21.00;99.90
5023;DHT22;2530;47.990;7.866;2022-08-19T10:55:21;21.20;99.90
5023;DHT22;2530;47.990;7.866;2022-08-19T10:58:13;21.30;99.90
5023;DHT22;2530;47.990;7.866;2022-08-19T11:00:39;21.30;99.90
5023;DHT22;2530;47.990;7.866;2022-08-19T11:03:05;21.40;99.90
5023;DHT22;2530;47.990;7.866;2022-08-19T11:05:31;21.70;99.90
5023;DHT22;2530;47.990;7.866;2022-08-19T11:07:56;21.80;99.90
5023;DHT22;2530;47.990;7.866;2022-08-19T11:10:22;21.90;99.90
5023;DHT22;2530;47.990;7.866;2022-08-19T11:12:48;22.00;99.90
5023;DHT22;2530;47.990;7.866;2022-08-19T11:15:15;22.20;99.90
5023;DHT22;2530;47.990;7.866;2022-08-19T11:17:41;22.40;99.90
5023;DHT22;2530;47.990;7.866;2022-08-19T11:20:10;22.60;99.90
5023;DHT22;2530;47.990;7.866;2022-08-19T11:22:37;23.00;99.90
5023;DHT22;2530;47.990;7.866;2022-08-19T11:25:03;22.90;99.90
5023;DHT22;2530;47.990;7.866;2022-08-19T11:27:29;22.90;99.90
5023;DHT22;2530;47.990;7.866;2022-08-19T11:29:55;22.90;99.90
5023;DHT22;2530;47.990;7.866;2022-08-19T11:32:21;23.10;99.90
5023;DHT22;2530;47.990;7.866;2022-08-19T11:34:46;23.20;99.90
5023;DHT22;2530;47.990;7.866;2022-08-19T11:37:12;23.10;99.90
5023;DHT22;2530;47.990;7.866;2022-08-19T11:39:37;23.00;99.90
5023;DHT22;2530;47.990;7.866;2022-08-19T11:42:05;22.90;99.90
5023;DHT22;2530;47.990;7.866;2022-08-19T11:44:51;22.60;99.90
5023;DHT22;2530;47.990;7.866;2022-08-19T11:47:17;22.40;99.90
5023;DHT22;2530;47.990;7.866;2022-08-19T11:49:43;22.60;99.90
5023;DHT22;2530;47.990;7.866;2022-08-19T11:52:09;22.80;99.90
5023;DHT22;2530;47.990;7.866;2022-08-19T11:54:34;22.80;99.90
5023;DHT22;2530;47.990;7.866;2022-08-19T11:57:02;23.00;99.90
5023;DHT22;2530;47.990;7.866;2022-08-19T11:59:28;23.20;99.90
5023;DHT22;2530;47.990;7.866;2022-08-19T12:01:54;23.40;99.90
5023;DHT22;2530;47.990;7.866;2022-08-19T12:04:21;23.40;99.90
5023;DHT22;2530;47.990;7.866;2022-08-19T12:06:47;23.10;99.90
5023;DHT22;2530;47.990;7.866;2022-08-19T12:09:12;23.00;99.90
5023;DHT22;2530;47.990;7.866;2022-08-19T12:11:39;22.70;99.90
5023;DHT22;2530;47.990;7.866;2022-08-19T12:14:08;22.80;99.90
5023;DHT22;2530;47.990;7.866;2022-08-19T12:16:34;22.90;99.90
5023;DHT22;2530;47.990;7.866;2022-08-19T12:19:01;23.10;99.90
5023;DHT22;2530;47.990;7.866;2022-08-19T12:21:31;23.30;99.90
5023;DHT22;2530;47.990;7.866;2022-08-19T12:23:59;23.30;99.90
5023;DHT22;2530;47.990;7.866;2022-08-19T12:26:26;23.30;99.90
5023;DHT22;2530;47.990;7.866;2022-08-19T12:28:52;23.60;99.90
5023;DHT22;2530;47.990;7.866;2022-08-19T12:31:18;23.40;99.90
5023;DHT22;2530;47.990;7.866;2022-08-19T12:33:45;23.50;99.90
5023;DHT22;2530;47.990;7.866;2022-08-19T12:36:13;23.40;99.90
5023;DHT22;2530;47.990;7.866;2022-08-19T12:38:40;23.40;99.90
5023;DHT22;2530;47.990;7.866;2022-08-19T12:41:10;23.30;99.90
5023;DHT22;2530;47.990;7.866;2022-08-19T12:43:36;23.70;99.90
5023;DHT22;2530;47.990;7.866;2022-08-19T12:46:03;23.50;99.90
5023;DHT22;2530;47.990;7.866;2022-08-19T12:48:30;23.40;99.90
5023;DHT22;2530;47.990;7.866;2022-08-19T12:50:55;23.70;99.90
5023;DHT22;2530;47.990;7.866;2022-08-19T12:53:21;23.90;99.90
5023;DHT22;2530;47.990;7.866;2022-08-19T12:55:47;24.30;99.90
5023;DHT22;2530;47.990;7.866;2022-08-19T12:58:12;24.20;99.90
5023;DHT22;2530;47.990;7.866;2022-08-19T13:00:39;23.80;99.90
5023;DHT22;2530;47.990;7.866;2022-08-19T13:03:05;24.00;99.90
5023;DHT22;2530;47.990;7.866;2022-08-19T13:05:32;24.00;99.90
5023;DHT22;2530;47.990;7.866;2022-08-19T13:07:59;24.00;99.90
5023;DHT22;2530;47.990;7.866;2022-08-19T13:10:33;24.60;99.90
5023;DHT22;2530;47.990;7.866;2022-08-19T13:13:00;24.10;99.90
5023;DHT22;2530;47.990;7.866;2022-08-19T13:15:27;24.20;99.90
5023;DHT22;2530;47.990;7.866;2022-08-19T13:17:57;23.90;99.90
5023;DHT22;2530;47.990;7.866;2022-08-19T13:20:24;23.90;99.90
5023;DHT22;2530;47.990;7.866;2022-08-19T13:22:50;24.00;99.90
5023;DHT22;2530;47.990;7.866;2022-08-19T13:25:17;24.30;99.90
5023;DHT22;2530;47.990;7.866;2022-08-19T13:27:46;24.50;99.90
5023;DHT22;2530;47.990;7.866;2022-08-19T13:30:13;24.50;99.90
5023;DHT22;2530;47.990;7.866;2022-08-19T13:32:58;24.50;99.90
5023;DHT22;2530;47.990;7.866;2022-08-19T13:36:00;24.60;99.90
5023;DHT22;2530;47.990;7.866;2022-08-19T13:38:27;24.60;99.90
5023;DHT22;2530;47.990;7.866;2022-08-19T13:40:54;24.60;99.90
5023;DHT22;2530;47.990;7.866;2022-08-19T13:43:21;24.80;99.90
5023;DHT22;2530;47.990;7.866;2022-08-19T13:45:48;25.40;99.90
5023;DHT22;2530;47.990;7.866;2022-08-19T13:48:14;25.50;99.90
5023;DHT22;2530;47.990;7.866;2022-08-19T13:50:43;25.50;99.90
5023;DHT22;2530;47.990;7.866;2022-08-19T13:53:10;26.00;99.90
5023;DHT22;2530;47.990;7.866;2022-08-19T13:55:41;26.00;99.90
5023;DHT22;2530;47.990;7.866;2022-08-19T13:58:08;25.90;99.90
5023;DHT22;2530;47.990;7.866;2022-08-19T14:00:39;25.70;99.90
5023;DHT22;2530;47.990;7.866;2022-08-19T14:03:05;25.90;99.90
5023;DHT22;2530;47.990;7.866;2022-08-19T14:05:32;25.80;99.90
5023;DHT22;2530;47.990;7.866;2022-08-19T14:07:58;25.60;99.90
5023;DHT22;2530;47.990;7.866;2022-08-19T14:10:25;25.80;99.90
5023;DHT22;2530;47.990;7.866;2022-08-19T14:12:55;26.00;99.90
5023;DHT22;2530;47.990;7.866;2022-08-19T14:15:22;26.30;99.90
5023;DHT22;2530;47.990;7.866;2022-08-19T14:17:48;26.50;99.90
5023;DHT22;2530;47.990;7.866;2022-08-19T14:20:15;25.90;99.90
5023;DHT22;2530;47.990;7.866;2022-08-19T14:22:42;25.30;99.90
5023;DHT22;2530;47.990;7.866;2022-08-19T14:25:11;24.90;99.90
5023;DHT22;2530;47.990;7.866;2022-08-19T14:27:39;24.60;99.90
5023;DHT22;2530;47.990;7.866;2022-08-19T14:30:08;24.30;99.90
5023;DHT22;2530;47.990;7.866;2022-08-19T14:32:34;24.10;99.90
5023;DHT22;2530;47.990;7.866;2022-08-19T14:35:01;23.90;99.90
5023;DHT22;2530;47.990;7.866;2022-08-19T14:37:26;23.90;99.90
5023;DHT22;2530;47.990;7.866;2022-08-19T14:39:52;23.70;99.90
5023;DHT22;2530;47.990;7.866;2022-08-19T14:42:18;23.70;99.90
5023;DHT22;2530;47.990;7.866;2022-08-19T14:44:44;23.70;99.90
5023;DHT22;2530;47.990;7.866;2022-08-19T14:47:10;23.50;99.90
5023;DHT22;2530;47.990;7.866;2022-08-19T14:49:36;23.30;99.90
5023;DHT22;2530;47.990;7.866;2022-08-19T14:52:02;23.20;99.90
5023;DHT22;2530;47.990;7.866;2022-08-19T14:54:28;23.10;99.90
5023;DHT22;2530;47.990;7.866;2022-08-19T14:56:53;22.90;99.90
5023;DHT22;2530;47.990;7.866;2022-08-19T14:59:19;22.90;99.90
5023;DHT22;2530;47.990;7.866;2022-08-19T15:01:44;22.70;99.90
5023;DHT22;2530;47.990;7.866;2022-08-19T15:04:10;22.70;99.90
5023;DHT22;2530;47.990;7.866;2022-08-19T15:06:36;22.60;99.90
5023;DHT22;2530;47.990;7.866;2022-08-19T15:09:02;22.60;99.90
5023;DHT22;2530;47.990;7.866;2022-08-19T15:11:29;22.70;99.90
5023;DHT22;2530;47.990;7.866;2022-08-19T15:13:56;22.60;99.90
5023;DHT22;2530;47.990;7.866;2022-08-19T15:16:23;22.60;99.90
5023;DHT22;2530;47.990;7.866;2022-08-19T15:18:53;22.60;99.90
5023;DHT22;2530;47.990;7.866;2022-08-19T15:21:19;22.60;99.90
5023;DHT22;2530;47.990;7.866;2022-08-19T15:23:47;22.60;99.90
5023;DHT22;2530;47.990;7.866;2022-08-19T15:26:13;22.60;99.90
5023;DHT22;2530;47.990;7.866;2022-08-19T15:28:39;22.50;99.90
5023;DHT22;2530;47.990;7.866;2022-08-19T15:31:05;22.50;99.90
5023;DHT22;2530;47.990;7.866;2022-08-19T15:33:32;22.60;99.90
5023;DHT22;2530;47.990;7.866;2022-08-19T15:36:00;22.60;99.90
5023;DHT22;2530;47.990;7.866;2022-08-19T15:38:26;22.60;99.90
5023;DHT22;2530;47.990;7.866;2022-08-19T15:40:52;22.60;99.90
5023;DHT22;2530;47.990;7.866;2022-08-19T15:43:18;22.60;99.90
5023;DHT22;2530;47.990;7.866;2022-08-19T15:45:46;22.60;99.90
5023;DHT22;2530;47.990;7.866;2022-08-19T15:48:12;22.80;99.90
5023;DHT22;2530;47.990;7.866;2022-08-19T15:50:38;23.00;99.90
5023;DHT22;2530;47.990;7.866;2022-08-19T15:53:06;23.10;99.90
5023;DHT22;2530;47.990;7.866;2022-08-19T15:55:35;23.30;99.90
5023;DHT22;2530;47.990;7.866;2022-08-19T15:58:04;23.40;99.90
5023;DHT22;2530;47.990;7.866;2022-08-19T16:00:48;23.50;99.90
5023;DHT22;2530;47.990;7.866;2022-08-19T16:03:32;23.50;99.90
5023;DHT22;2530;47.990;7.866;2022-08-19T16:06:16;23.50;99.90
5023;DHT22;2530;47.990;7.866;2022-08-19T16:08:55;23.50;99.90
5023;DHT22;2530;47.990;7.866;2022-08-19T16:11:24;23.60;99.90
5023;DHT22;2530;47.990;7.866;2022-08-19T16:13:53;23.50;99.90
5023;DHT22;2530;47.990;7.866;2022-08-19T16:16:25;23.40;99.90
5023;DHT22;2530;47.990;7.866;2022-08-19T16:18:54;23.40;99.90
5023;DHT22;2530;47.990;7.866;2022-08-19T16:21:21;23.40;99.90